Time;durP1;ratioP1;P1;durP2;ratioP2;P2;SDS_P1;SDS_P2;PMS_P1;PMS_P2;Temp;Humidity;BMP_temperature;BMP_pressure;BME280_temperature;BME280_humidity;BME280_pressure;Samples;Min_cycle;Max_cycle;Signal;HPM_P1;HPM_P2
2023/03/25 00:01:00;;;;;;;4.15;3.90;;;6.70;93.60;;;;;;5052086;28;20032;-76
2023/03/25 00:03:28;;;;;;;3.55;3.38;;;6.70;93.40;;;;;;5058816;28;20029;-75
2023/03/25 00:05:55;;;;;;;4.00;3.70;;;6.70;93.00;;;;;;5058683;28;20107;-75
2023/03/25 00:08:23;;;;;;;3.50;3.30;;;6.70;92.80;;;;;;5059571;28;20032;-75
2023/03/25 00:10:53;;;;;;;3.67;3.50;;;6.60;92.40;;;;;;5054997;28;20470;-75
2023/03/25 00:13:20;;;;;;;3.47;3.28;;;6.60;92.10;;;;;;5053921;28;20040;-75
2023/03/25 00:15:47;;;;;;;3.38;3.28;;;6.70;92.00;;;;;;5052206;28;20029;-74
2023/03/25 00:18:16;;;;;;;3.78;3.58;;;6.70;91.80;;;;;;5056049;28;20163;-75
2023/03/25 00:20:44;;;;;;;4.15;3.95;;;6.70;91.90;;;;;;5055877;28;20495;-75
2023/03/25 00:23:11;;;;;;;3.80;3.60;;;6.70;91.80;;;;;;5057398;28;20045;-74
2023/03/25 00:25:37;;;;;;;3.80;3.55;;;6.70;91.50;;;;;;5052554;28;20040;-75
2023/03/25 00:28:02;;;;;;;8.52;7.70;;;6.60;91.50;;;;;;5059467;28;20060;-74
2023/03/25 00:30:28;;;;;;;6.28;5.95;;;6.80;91.30;;;;;;5051805;28;20033;-76
2023/03/25 00:32:56;;;;;;;5.07;4.78;;;6.70;91.30;;;;;;5054247;28;20063;-75
2023/03/25 00:35:22;;;;;;;3.80;3.58;;;6.90;91.10;;;;;;5046766;28;20034;-75
2023/03/25 00:37:56;;;;;;;4.13;3.28;;;6.80;91.20;;;;;;5056195;28;20068;-75
2023/03/25 00:40:22;;;;;;;3.83;3.63;;;6.70;91.40;;;;;;5051497;28;20017;-75
2023/03/25 00:42:49;;;;;;;3.67;3.47;;;6.90;91.10;;;;;;5048467;28;20032;-76
2023/03/25 00:45:15;;;;;;;15.68;14.43;;;6.90;91.00;;;;;;5034454;28;20698;-74
2023/03/25 00:47:42;;;;;;;4.32;3.67;;;6.90;90.90;;;;;;5055133;28;20503;-73
2023/03/25 00:50:08;;;;;;;3.67;3.47;;;7.00;90.80;;;;;;5051656;28;20037;-75
2023/03/25 00:52:34;;;;;;;4.00;3.60;;;7.00;90.70;;;;;;5060723;28;20029;-77
2023/03/25 00:55:00;;;;;;;13.38;12.32;;;7.00;90.60;;;;;;5054234;28;20407;-73
2023/03/25 00:57:26;;;;;;;5.93;5.60;;;7.10;90.50;;;;;;5062573;28;20027;-77
2023/03/25 00:59:52;;;;;;;3.83;3.63;;;7.20;90.40;;;;;;5055659;28;20029;-76
2023/03/25 01:02:20;;;;;;;4.32;4.03;;;7.10;90.70;;;;;;5058456;28;20029;-75
2023/03/25 01:04:48;;;;;;;3.97;3.78;;;7.00;90.60;;;;;;5057625;28;20047;-76
2023/03/25 01:07:15;;;;;;;3.70;3.40;;;7.00;90.70;;;;;;5061114;28;20059;-75
2023/03/25 01:09:44;;;;;;;3.50;3.30;;;6.80;91.10;;;;;;5055327;28;20037;-78
2023/03/25 01:12:10;;;;;;;4.05;3.75;;;6.80;91.10;;;;;;5060964;28;20025;-76
2023/03/25 01:14:35;;;;;;;4.57;3.58;;;6.80;91.10;;;;;;5050629;28;20031;-75
2023/03/25 01:17:01;;;;;;;3.75;3.45;;;6.60;91.30;;;;;;5056441;28;20035;-76
2023/03/25 01:19:27;;;;;;;21.23;12.48;;;6.60;91.30;;;;;;5055083;28;20108;-75
2023/03/25 01:21:52;;;;;;;5.30;4.63;;;6.50;91.40;;;;;;5061210;28;20197;-77
2023/03/25 01:24:18;;;;;;;13.57;12.38;;;6.50;91.60;;;;;;5038458;28;20123;-76
2023/03/25 01:26:44;;;;;;;3.65;3.42;;;6.50;91.70;;;;;;5060809;28;20041;-75
2023/03/25 01:29:16;;;;;;;3.42;3.22;;;6.30;92.00;;;;;;5052451;28;20033;-76
2023/03/25 01:31:42;;;;;;;12.60;11.75;;;6.30;92.20;;;;;;5064988;28;20037;-81
2023/03/25 01:34:08;;;;;;;3.70;3.40;;;6.40;91.80;;;;;;5051706;28;20070;-77
2023/03/25 01:36:36;;;;;;;3.95;3.53;;;6.30;91.60;;;;;;5057340;28;20539;-76
2023/03/25 01:39:04;;;;;;;4.28;3.30;;;6.30;91.60;;;;;;5054139;28;20029;-76
2023/03/25 01:41:30;;;;;;;4.00;3.50;;;6.30;91.50;;;;;;5042599;28;20514;-75
2023/03/25 01:44:08;;;;;;;3.63;3.42;;;6.20;91.70;;;;;;5055928;28;20033;-75
2023/03/25 01:46:44;;;;;;;3.65;3.45;;;6.30;91.70;;;;;;5053981;28;20029;-75
2023/03/25 01:49:17;;;;;;;4.00;3.63;;;6.10;91.80;;;;;;5044844;28;20509;-75
2023/03/25 01:51:46;;;;;;;3.80;3.47;;;6.10;91.80;;;;;;5064526;28;20059;-75
2023/03/25 01:54:16;;;;;;;3.40;3.20;;;6.20;91.60;;;;;;5056517;28;20483;-74
2023/03/25 01:56:45;;;;;;;3.60;3.30;;;6.10;91.70;;;;;;5059436;28;20067;-78
2023/03/25 01:59:11;;;;;;;3.50;3.30;;;6.00;91.70;;;;;;5055852;28;20045;-74
2023/03/25 02:01:37;;;;;;;3.63;3.38;;;5.90;91.80;;;;;;5059614;28;20553;-76
2023/03/25 02:04:10;;;;;;;4.22;3.90;;;5.90;91.90;;;;;;5049335;28;20032;-76
2023/03/25 02:06:43;;;;;;;5.18;4.50;;;6.10;91.60;;;;;;5052298;28;20546;-74
2023/03/25 02:09:12;;;;;;;4.07;3.72;;;6.20;91.20;;;;;;5055290;28;20127;-77
2023/03/25 02:11:38;;;;;;;4.80;3.53;;;6.20;91.00;;;;;;5058244;28;20497;-75
2023/03/25 02:14:09;;;;;;;3.58;3.38;;;6.00;91.00;;;;;;5052664;28;20048;-74
2023/03/25 02:16:34;;;;;;;8.93;8.27;;;6.00;91.30;;;;;;5058192;28;20548;-75
2023/03/25 02:19:31;;;;;;;6.65;6.25;;;6.20;91.20;;;;;;5053126;28;20117;-75
2023/03/25 02:22:24;;;;;;;3.35;3.15;;;6.20;90.90;;;;;;5054584;28;20041;-74
2023/03/25 02:25:08;;;;;;;3.67;3.47;;;6.20;90.90;;;;;;5053869;28;20029;-75
2023/03/25 02:27:49;;;;;;;5.10;3.38;;;6.10;91.20;;;;;;5057001;28;20033;-74
2023/03/25 02:30:35;;;;;;;3.05;2.95;;;6.10;91.20;;;;;;5056259;28;20371;-76
2023/03/25 02:33:04;;;;;;;3.55;3.30;;;6.10;91.20;;;;;;5057377;28;20037;-76
2023/03/25 02:36:03;;;;;;;7.35;6.72;;;6.20;91.00;;;;;;5055427;28;20399;-74
2023/03/25 02:38:46;;;;;;;3.55;3.38;;;6.30;90.90;;;;;;5049228;28;20046;-75
2023/03/25 02:41:22;;;;;;;3.80;3.60;;;6.30;90.70;;;;;;5061461;28;20033;-75
2023/03/25 02:43:51;;;;;;;11.95;11.10;;;6.40;90.60;;;;;;5049872;28;20086;-75
2023/03/25 02:46:17;;;;;;;4.18;3.78;;;6.40;90.30;;;;;;5058377;28;20064;-75
2023/03/25 02:48:56;;;;;;;46.05;18.67;;;6.40;90.40;;;;;;5051862;28;20566;-75
2023/03/25 02:51:31;;;;;;;5.60;5.28;;;6.50;90.10;;;;;;5054910;28;20101;-75
2023/03/25 02:54:01;;;;;;;33.00;29.30;;;6.50;90.10;;;;;;5057049;28;20542;-75
2023/03/25 02:56:28;;;;;;;3.72;3.30;;;6.40;90.20;;;;;;5049841;28;20037;-75
2023/03/25 02:58:55;;;;;;;46.10;41.67;;;6.30;90.50;;;;;;5051683;28;20036;-74
2023/03/25 03:01:25;;;;;;;14.40;13.02;;;6.30;90.40;;;;;;5061051;28;20041;-74
2023/03/25 03:03:52;;;;;;;5.97;3.50;;;6.30;90.60;;;;;;5046413;28;20037;-75
2023/03/25 03:06:19;;;;;;;9.98;9.23;;;6.20;90.70;;;;;;5055145;28;20060;-74
2023/03/25 03:08:48;;;;;;;3.60;3.40;;;6.10;91.30;;;;;;5054284;28;20612;-74
2023/03/25 03:11:35;;;;;;;29.92;26.40;;;6.20;91.00;;;;;;5052670;28;20025;-75
2023/03/25 03:14:22;;;;;;;3.92;3.63;;;6.20;90.80;;;;;;5054784;28;20028;-75
2023/03/25 03:17:17;;;;;;;4.95;4.55;;;6.30;90.90;;;;;;5054085;28;20032;-75
2023/03/25 03:19:51;;;;;;;4.47;3.67;;;6.40;90.60;;;;;;5061195;28;20051;-75
2023/03/25 03:22:37;;;;;;;3.60;3.40;;;6.40;90.80;;;;;;5051488;28;20506;-77
2023/03/25 03:25:26;;;;;;;242.13;84.72;;;6.50;90.50;;;;;;5050514;28;20033;-75
2023/03/25 03:28:03;;;;;;;3.60;3.40;;;6.50;90.30;;;;;;5055302;28;20116;-77
2023/03/25 03:30:42;;;;;;;50.65;46.38;;;6.40;90.40;;;;;;5054091;28;20028;-75
2023/03/25 03:33:25;;;;;;;3.63;3.42;;;6.40;90.60;;;;;;5050640;28;20025;-77
2023/03/25 03:35:57;;;;;;;3.55;3.35;;;6.50;90.60;;;;;;5052781;28;20043;-76
2023/03/25 03:38:26;;;;;;;3.95;3.75;;;6.40;90.50;;;;;;5041909;28;20072;-75
2023/03/25 03:40:58;;;;;;;3.75;3.50;;;6.40;90.80;;;;;;5046538;28;20028;-74
2023/03/25 03:43:32;;;;;;;3.55;3.45;;;6.40;91.60;;;;;;5048256;28;20491;-74
2023/03/25 03:46:05;;;;;;;7.38;4.30;;;6.30;92.30;;;;;;5039058;28;20060;-75
2023/03/25 03:48:39;;;;;;;4.20;3.90;;;6.20;93.10;;;;;;5055099;28;20113;-76
2023/03/25 03:51:13;;;;;;;57.25;35.10;;;7.20;97.30;;;;;;5053461;28;20032;-74
2023/03/25 03:53:44;;;;;;;38.70;35.85;;;6.90;99.60;;;;;;5041367;28;20037;-75
2023/03/25 03:56:18;;;;;;;20.92;18.70;;;6.90;99.90;;;;;;5051672;28;20100;-75
2023/03/25 03:58:45;;;;;;;5.70;5.40;;;6.90;99.90;;;;;;5047475;28;20034;-74
2023/03/25 04:01:46;;;;;;;3.90;3.63;;;7.00;99.90;;;;;;5039416;28;20079;-76
2023/03/25 04:04:25;;;;;;;22.50;20.75;;;7.00;99.90;;;;;;5043472;28;20167;-75
2023/03/25 04:06:55;;;;;;;6.43;6.03;;;7.00;99.90;;;;;;5055120;28;20039;-74
2023/03/25 04:09:32;;;;;;;3.50;3.17;;;7.10;99.90;;;;;;5051825;28;20226;-76
2023/03/25 04:12:03;;;;;;;5.57;5.28;;;7.10;99.90;;;;;;5051182;28;20033;-75
2023/03/25 04:14:29;;;;;;;3.65;3.47;;;7.00;99.90;;;;;;5052723;28;20052;-75
2023/03/25 04:16:55;;;;;;;4.05;3.58;;;7.00;99.90;;;;;;5048355;28;20114;-75
2023/03/25 04:19:21;;;;;;;31.13;29.30;;;7.10;99.90;;;;;;5056467;28;20051;-74
2023/03/25 04:21:47;;;;;;;3.83;3.60;;;7.00;99.90;;;;;;5054357;28;20508;-75
2023/03/25 04:24:15;;;;;;;3.95;3.75;;;7.10;99.90;;;;;;5054786;28;20028;-76
2023/03/25 04:26:42;;;;;;;7.50;7.10;;;7.00;99.90;;;;;;5054265;28;20041;-74
2023/03/25 04:29:08;;;;;;;4.57;3.50;;;7.00;99.90;;;;;;5057631;28;20664;-74
2023/03/25 04:31:36;;;;;;;6.75;6.43;;;7.00;99.90;;;;;;5056095;28;20363;-74
2023/03/25 04:34:03;;;;;;;30.25;27.75;;;6.90;99.90;;;;;;5054894;28;20056;-74
2023/03/25 04:36:32;;;;;;;240.40;131.80;;;6.90;99.90;;;;;;5057011;28;20032;-74
2023/03/25 04:38:58;;;;;;;8.75;8.35;;;6.90;99.90;;;;;;5055777;28;20051;-76
2023/03/25 04:41:24;;;;;;;3.78;3.67;;;6.80;99.90;;;;;;5058632;28;20032;-74
2023/03/25 04:43:50;;;;;;;39.88;35.75;;;6.80;99.90;;;;;;5063207;28;20072;-75
2023/03/25 04:46:17;;;;;;;84.03;74.47;;;6.80;99.90;;;;;;5054537;28;20029;-75
2023/03/25 04:48:44;;;;;;;3.58;3.38;;;6.60;99.90;;;;;;5061224;28;20045;-74
2023/03/25 04:51:14;;;;;;;4.10;3.90;;;6.60;99.90;;;;;;5054329;28;20739;-75
2023/03/25 04:53:41;;;;;;;4.68;4.30;;;6.50;99.90;;;;;;5060577;28;20036;-74
2023/03/25 04:56:17;;;;;;;5.53;5.28;;;6.50;99.90;;;;;;5058167;28;20029;-75
2023/03/25 04:58:44;;;;;;;3.65;3.55;;;6.50;99.90;;;;;;5061436;28;20119;-75
2023/03/25 05:01:29;;;;;;;8.77;7.95;;;6.50;99.90;;;;;;5055357;28;20035;-74
2023/03/25 05:04:04;;;;;;;4.35;4.18;;;6.50;99.90;;;;;;5063743;28;20052;-74
2023/03/25 05:06:37;;;;;;;4.20;3.90;;;6.40;99.90;;;;;;5052299;28;20029;-74
2023/03/25 05:09:04;;;;;;;4.30;4.10;;;6.40;99.90;;;;;;5062053;28;20032;-74
2023/03/25 05:11:33;;;;;;;12.85;12.07;;;6.40;99.90;;;;;;5053774;28;20033;-74
2023/03/25 05:13:58;;;;;;;4.35;4.15;;;6.40;99.90;;;;;;5059494;28;20025;-75
2023/03/25 05:16:24;;;;;;;3.10;3.00;;;6.40;99.90;;;;;;5059613;28;20505;-75
2023/03/25 05:18:50;;;;;;;3.08;2.97;;;6.30;99.90;;;;;;5062919;28;21324;-74
2023/03/25 05:21:16;;;;;;;3.10;3.00;;;6.30;99.90;;;;;;5057203;28;20044;-75
2023/03/25 05:23:42;;;;;;;6.20;5.90;;;6.30;99.90;;;;;;5055227;28;20039;-76
2023/03/25 05:26:08;;;;;;;12.60;8.77;;;6.20;99.90;;;;;;5056409;28;20402;-75
2023/03/25 05:28:35;;;;;;;39.50;36.33;;;6.20;99.90;;;;;;5058475;28;20078;-74
2023/03/25 05:31:07;;;;;;;144.40;67.97;;;6.20;99.90;;;;;;5053615;28;20780;-74
2023/03/25 05:33:35;;;;;;;3.60;3.03;;;6.20;99.90;;;;;;5053989;28;20070;-75
2023/03/25 05:36:04;;;;;;;3.28;3.17;;;6.20;99.90;;;;;;5057810;28;20032;-75
2023/03/25 05:38:31;;;;;;;3.10;2.90;;;6.10;99.90;;;;;;5055212;28;20067;-74
2023/03/25 05:40:59;;;;;;;5.80;5.38;;;6.10;99.90;;;;;;5056114;28;20060;-74
2023/03/25 05:43:24;;;;;;;3.30;3.20;;;6.10;99.90;;;;;;5055511;28;20047;-73
2023/03/25 05:45:50;;;;;;;271.67;147.43;;;6.10;99.90;;;;;;5059355;28;20032;-75
2023/03/25 05:48:16;;;;;;;3.60;3.50;;;6.00;99.90;;;;;;5054904;28;20521;-74
2023/03/25 05:50:42;;;;;;;3.20;3.10;;;6.10;99.90;;;;;;5058778;28;20025;-74
2023/03/25 05:53:14;;;;;;;3.50;3.20;;;6.10;99.90;;;;;;5055735;28;20029;-75
2023/03/25 05:55:40;;;;;;;82.25;73.55;;;6.10;99.90;;;;;;5052728;28;20055;-74
2023/03/25 05:58:06;;;;;;;8.43;7.93;;;6.10;99.90;;;;;;5050546;28;20052;-75
2023/03/25 06:00:31;;;;;;;3.85;3.55;;;6.10;99.90;;;;;;5055348;28;20098;-75
2023/03/25 06:03:00;;;;;;;3.33;3.22;;;6.10;99.90;;;;;;5051490;28;20028;-74
2023/03/25 06:05:28;;;;;;;9.10;8.38;;;6.20;99.90;;;;;;5055680;28;20028;-74
2023/03/25 06:07:55;;;;;;;3.58;3.42;;;6.10;99.90;;;;;;5047995;28;20570;-74
2023/03/25 06:10:21;;;;;;;8.73;8.32;;;6.10;99.90;;;;;;5044199;28;20025;-74
2023/03/25 06:12:48;;;;;;;3.22;3.13;;;6.10;99.90;;;;;;5046301;28;20029;-75
2023/03/25 06:15:27;;;;;;;5.70;5.45;;;6.10;99.90;;;;;;5054387;28;20029;-76
2023/03/25 06:17:55;;;;;;;3.53;3.40;;;6.10;99.90;;;;;;5045668;28;20036;-75
2023/03/25 06:20:21;;;;;;;6.10;5.78;;;6.20;99.90;;;;;;5047958;28;20036;-75
2023/03/25 06:22:47;;;;;;;3.20;3.10;;;6.20;99.90;;;;;;5051161;28;20372;-74
2023/03/25 06:25:19;;;;;;;11.27;10.40;;;6.20;99.90;;;;;;5049768;28;20071;-75
2023/03/25 06:27:48;;;;;;;3.28;3.17;;;6.20;99.90;;;;;;5046721;28;20463;-74
2023/03/25 06:30:17;;;;;;;3.40;3.20;;;6.20;99.90;;;;;;5046850;28;20060;-75
2023/03/25 06:32:42;;;;;;;3.33;3.22;;;6.40;99.90;;;;;;5057339;28;20090;-74
2023/03/25 06:35:09;;;;;;;4.00;3.80;;;6.30;99.90;;;;;;5053811;28;20033;-74
2023/03/25 06:37:36;;;;;;;5.75;3.60;;;6.40;99.90;;;;;;5043184;28;20449;-75
2023/03/25 06:40:04;;;;;;;5.43;5.05;;;6.60;99.90;;;;;;5046384;28;20475;-74
2023/03/25 06:42:31;;;;;;;12.48;11.18;;;6.60;99.90;;;;;;5047344;28;20433;-77
2023/03/25 06:44:58;;;;;;;3.83;3.53;;;6.60;99.90;;;;;;5038183;28;20086;-74
2023/03/25 06:47:24;;;;;;;3.70;3.50;;;6.70;99.90;;;;;;5053333;28;20029;-74
2023/03/25 06:49:51;;;;;;;9.73;9.13;;;6.80;99.90;;;;;;5055511;28;20033;-75
2023/03/25 06:52:20;;;;;;;3.85;3.55;;;6.80;99.90;;;;;;5050393;28;20037;-75
2023/03/25 06:54:46;;;;;;;3.30;3.17;;;6.80;99.90;;;;;;5047604;28;20082;-76
2023/03/25 06:57:12;;;;;;;9.05;8.60;;;6.90;99.90;;;;;;5029682;28;20033;-78
2023/03/25 06:59:37;;;;;;;9.50;9.10;;;6.80;99.90;;;;;;5040894;28;20048;-74
2023/03/25 07:02:03;;;;;;;87.45;66.63;;;6.90;99.90;;;;;;5041519;28;20033;-75
2023/03/25 07:04:29;;;;;;;82.20;42.58;;;7.00;99.90;;;;;;5051291;28;20033;-75
2023/03/25 07:07:02;;;;;;;73.10;47.60;;;6.90;99.90;;;;;;5051735;28;20057;-78
2023/03/25 07:09:29;;;;;;;3.75;3.65;;;7.10;99.90;;;;;;5043309;28;20036;-75
2023/03/25 07:11:55;;;;;;;3.50;3.30;;;7.20;99.90;;;;;;5054337;28;20028;-76
2023/03/25 07:14:21;;;;;;;12.00;11.50;;;7.30;99.90;;;;;;5053929;28;20040;-75
2023/03/25 07:16:46;;;;;;;3.70;3.60;;;7.10;99.90;;;;;;5041325;28;20753;-76
2023/03/25 07:19:12;;;;;;;30.90;16.02;;;7.20;99.90;;;;;;5048534;28;20541;-74
2023/03/25 07:21:37;;;;;;;3.40;3.30;;;7.20;99.90;;;;;;5048641;28;20047;-77
2023/03/25 07:24:03;;;;;;;29.83;26.15;;;7.30;99.90;;;;;;5048576;28;20110;-78
2023/03/25 07:26:29;;;;;;;4.43;4.13;;;7.40;99.90;;;;;;5052382;28;20041;-75
2023/03/25 07:28:55;;;;;;;5.63;5.40;;;7.30;99.90;;;;;;5033917;28;20446;-79
2023/03/25 07:31:20;;;;;;;16.40;15.20;;;7.40;99.90;;;;;;5050139;28;20636;-75
2023/03/25 07:33:46;;;;;;;70.35;38.90;;;7.30;99.90;;;;;;5050220;28;20037;-79
2023/03/25 07:36:13;;;;;;;76.65;32.03;;;7.20;99.90;;;;;;5053978;28;20040;-80
2023/03/25 07:38:39;;;;;;;3.60;3.40;;;7.20;99.90;;;;;;5049672;28;20048;-79
2023/03/25 07:41:10;;;;;;;9.90;9.48;;;7.40;99.90;;;;;;5049480;28;20039;-77
2023/03/25 07:43:37;;;;;;;3.45;3.33;;;7.30;99.90;;;;;;5036688;28;20045;-78
2023/03/25 07:46:02;;;;;;;3.75;3.65;;;7.40;99.90;;;;;;5050642;28;20045;-78
2023/03/25 07:48:28;;;;;;;6.22;5.97;;;7.50;99.90;;;;;;5051530;28;20041;-78
2023/03/25 07:50:54;;;;;;;41.00;29.02;;;7.60;99.90;;;;;;5046719;28;20123;-84
2023/03/25 07:53:20;;;;;;;3.30;3.20;;;7.60;99.90;;;;;;5052609;28;20045;-78
2023/03/25 07:55:45;;;;;;;3.20;3.10;;;7.70;99.90;;;;;;5047401;28;20033;-76
2023/03/25 07:58:11;;;;;;;198.10;34.28;;;8.00;99.90;;;;;;5054287;28;20079;-76
2023/03/25 08:00:37;;;;;;;3.53;3.42;;;7.90;99.90;;;;;;5051564;28;20534;-76
2023/03/25 08:03:03;;;;;;;4.50;4.32;;;7.80;99.80;;;;;;5055644;28;20032;-82
2023/03/25 08:05:30;;;;;;;4.10;3.30;;;7.70;99.90;;;;;;5052234;28;20036;-79
2023/03/25 08:07:59;;;;;;;3.90;3.70;;;7.90;99.90;;;;;;5048722;28;20033;-79
2023/03/25 08:10:25;;;;;;;29.38;27.42;;;8.30;99.90;;;;;;5057297;28;20075;-76
2023/03/25 08:12:52;;;;;;;4.35;3.80;;;8.40;99.60;;;;;;5059513;28;20147;-82
2023/03/25 08:15:19;;;;;;;3.20;3.10;;;8.40;99.90;;;;;;5052539;28;20031;-76
2023/03/25 08:17:45;;;;;;;3.90;3.70;;;8.50;99.90;;;;;;5055252;28;20131;-75
2023/03/25 08:20:12;;;;;;;19.00;9.38;;;8.50;99.90;;;;;;5052729;28;20037;-76
2023/03/25 08:22:38;;;;;;;12.95;12.38;;;8.50;99.80;;;;;;5063489;28;20143;-78
2023/03/25 08:25:04;;;;;;;3.88;3.58;;;8.50;99.90;;;;;;5055823;28;20052;-75
2023/03/25 08:27:30;;;;;;;4.00;3.83;;;8.50;99.70;;;;;;5052844;28;20047;-76
2023/03/25 08:29:58;;;;;;;3.85;3.65;;;8.40;99.90;;;;;;5056745;28;20062;-75
2023/03/25 08:32:25;;;;;;;3.60;3.40;;;8.40;99.90;;;;;;5055621;28;20045;-75
2023/03/25 08:34:50;;;;;;;4.60;4.30;;;8.40;99.90;;;;;;5052530;28;20022;-76
2023/03/25 08:37:16;;;;;;;4.20;4.00;;;8.50;99.90;;;;;;5057742;28;20052;-74
2023/03/25 08:39:44;;;;;;;4.00;3.60;;;8.50;99.90;;;;;;5051459;28;20041;-76
2023/03/25 08:42:11;;;;;;;3.60;3.50;;;8.60;99.90;;;;;;5054362;28;20110;-77
2023/03/25 08:44:38;;;;;;;90.03;63.40;;;8.60;99.90;;;;;;5057659;28;20036;-78
2023/03/25 08:47:04;;;;;;;3.75;3.55;;;8.80;99.00;;;;;;5055195;28;20044;-81
2023/03/25 08:49:30;;;;;;;4.55;4.35;;;8.80;99.90;;;;;;5054337;28;20107;-82
2023/03/25 08:51:59;;;;;;;4.32;4.10;;;9.20;99.90;;;;;;5052326;28;20528;-77
2023/03/25 08:54:24;;;;;;;6.07;5.68;;;9.20;99.40;;;;;;5052582;28;20375;-81
2023/03/25 08:56:50;;;;;;;99.53;33.25;;;9.00;98.30;;;;;;5056392;28;20610;-77
2023/03/25 08:59:16;;;;;;;3.25;3.15;;;8.90;98.80;;;;;;5053712;28;20032;-78
2023/03/25 09:01:43;;;;;;;3.40;3.30;;;8.80;99.90;;;;;;5042210;28;20036;-79
2023/03/25 09:04:09;;;;;;;3.30;3.20;;;9.00;98.30;;;;;;5053105;28;20037;-79
2023/03/25 09:06:35;;;;;;;67.25;56.97;;;8.70;98.30;;;;;;5058718;28;20089;-78
2023/03/25 09:09:04;;;;;;;3.88;3.67;;;8.50;97.60;;;;;;5056606;28;20450;-77
2023/03/25 09:11:33;;;;;;;19.80;17.42;;;8.50;99.20;;;;;;5059006;28;20085;-75
2023/03/25 09:14:01;;;;;;;3.75;3.55;;;8.60;99.10;;;;;;5048931;28;20037;-78
2023/03/25 09:16:27;;;;;;;7.07;6.68;;;8.80;99.00;;;;;;5057411;28;20052;-79
2023/03/25 09:18:52;;;;;;;3.60;3.40;;;8.50;99.40;;;;;;5052854;28;20087;-76
2023/03/25 09:21:18;;;;;;;5.55;5.25;;;8.40;99.90;;;;;;5054002;28;20037;-78
2023/03/25 09:23:44;;;;;;;3.67;3.58;;;8.50;98.80;;;;;;5055018;28;20400;-76
2023/03/25 09:26:10;;;;;;;4.15;3.95;;;8.40;99.60;;;;;;5055785;28;20784;-80
2023/03/25 09:28:36;;;;;;;3.97;3.75;;;8.50;99.10;;;;;;5037010;28;20180;-79
2023/03/25 09:31:02;;;;;;;6.55;6.13;;;8.50;98.80;;;;;;5053187;28;20501;-79
2023/03/25 09:33:28;;;;;;;3.35;3.20;;;8.60;99.00;;;;;;5052303;28;20028;-78
2023/03/25 09:35:54;;;;;;;7.50;7.10;;;8.80;99.90;;;;;;5059469;28;20522;-79
2023/03/25 09:38:20;;;;;;;18.58;17.63;;;8.70;97.10;;;;;;5055986;28;20052;-76
2023/03/25 09:40:45;;;;;;;9.05;8.73;;;8.50;96.20;;;;;;5058578;28;20118;-77
2023/03/25 09:43:25;;;;;;;5.63;5.32;;;8.20;98.30;;;;;;5059458;28;20226;-77
2023/03/25 09:45:52;;;;;;;6.65;6.35;;;8.30;99.00;;;;;;5057288;28;20021;-78
2023/03/25 09:48:21;;;;;;;61.33;24.55;;;8.30;97.90;;;;;;5051743;28;20068;-79
2023/03/25 09:50:49;;;;;;;15.48;14.73;;;8.10;97.80;;;;;;5052644;28;20055;-78
2023/03/25 09:53:39;;;;;;;13.90;12.80;;;8.30;99.10;;;;;;5048875;28;20551;-75
2023/03/25 09:56:10;;;;;;;17.75;16.20;;;8.30;98.10;;;;;;5047614;28;20025;-79
2023/03/25 09:58:44;;;;;;;24.48;22.80;;;8.40;98.80;;;;;;5036060;28;20589;-76
2023/03/25 10:01:38;;;;;;;4.75;4.55;;;8.20;97.60;;;;;;5055020;28;20033;-86
2023/03/25 10:04:10;;;;;;;31.20;28.30;;;8.30;99.10;;;;;;5054246;28;20056;-83
2023/03/25 10:07:20;;;;;;;4.03;3.72;;;8.10;95.90;;;;;;5058576;28;21133;-82
2023/03/25 10:10:17;;;;;;;159.63;31.63;;;8.40;98.70;;;;;;5049672;28;20038;-76
2023/03/25 10:12:54;;;;;;;467.90;131.15;;;7.60;94.90;;;;;;5046001;28;20060;-76
2023/03/25 10:15:45;;;;;;;26.60;25.30;;;7.70;94.70;;;;;;5053965;28;20032;-75
2023/03/25 10:18:22;;;;;;;3.70;3.60;;;7.80;94.40;;;;;;5051252;28;20024;-77
2023/03/25 10:21:00;;;;;;;3.33;3.22;;;8.10;94.40;;;;;;5054705;28;20032;-78
2023/03/25 10:23:35;;;;;;;6.25;6.00;;;8.10;94.80;;;;;;5053043;28;20378;-78
2023/03/25 10:26:12;;;;;;;4.47;4.28;;;7.90;92.60;;;;;;5057709;28;20032;-77
2023/03/25 10:28:45;;;;;;;54.20;33.20;;;8.00;91.50;;;;;;5054248;28;20052;-77
2023/03/25 10:31:16;;;;;;;26.52;25.02;;;7.70;89.60;;;;;;5053694;28;20024;-78
2023/03/25 10:33:56;;;;;;;30.60;23.10;;;8.00;91.60;;;;;;5053200;28;20045;-83
2023/03/25 10:36:50;;;;;;;12.13;11.05;;;7.80;91.70;;;;;;5057301;28;20080;-77
2023/03/25 10:39:18;;;;;;;8.60;8.13;;;7.80;91.20;;;;;;5049805;28;20111;-79
2023/03/25 10:41:51;;;;;;;17.50;16.13;;;7.40;91.70;;;;;;5049340;28;20037;-77
2023/03/25 10:44:20;;;;;;;103.40;22.17;;;7.40;90.40;;;;;;5054204;28;20033;-76
2023/03/25 10:46:47;;;;;;;11.15;10.32;;;7.80;90.90;;;;;;5053451;28;20045;-76
2023/03/25 10:49:19;;;;;;;4.80;4.60;;;7.90;90.30;;;;;;5035602;28;20066;-77
2023/03/25 10:51:48;;;;;;;91.15;63.85;;;8.20;91.10;;;;;;5048197;28;20118;-76
2023/03/25 10:54:16;;;;;;;5.50;5.20;;;7.90;88.60;;;;;;5050310;28;20032;-79
2023/03/25 10:56:46;;;;;;;25.55;23.80;;;8.40;91.30;;;;;;5053678;28;20132;-80
2023/03/25 10:59:34;;;;;;;15.25;14.50;;;8.10;85.80;;;;;;5047230;28;20025;-79
2023/03/25 11:02:10;;;;;;;16.60;15.27;;;8.20;87.50;;;;;;5052782;28;20032;-78
2023/03/25 11:04:39;;;;;;;4.75;4.55;;;8.50;85.80;;;;;;5052847;28;20513;-81
2023/03/25 11:07:16;;;;;;;4.10;3.90;;;8.90;81.40;;;;;;5043463;28;20041;-79
2023/03/25 11:09:42;;;;;;;7.18;6.88;;;9.40;79.20;;;;;;5049291;28;20033;-80
2023/03/25 11:12:08;;;;;;;4.60;4.43;;;9.60;77.10;;;;;;5049995;28;20040;-79
2023/03/25 11:14:38;;;;;;;122.38;76.75;;;9.60;77.40;;;;;;5050629;28;20498;-82
2023/03/25 11:17:17;;;;;;;59.00;53.38;;;9.60;76.20;;;;;;5050402;28;20029;-77
2023/03/25 11:19:56;;;;;;;213.57;165.65;;;9.50;74.00;;;;;;5032512;28;20539;-81
2023/03/25 11:22:30;;;;;;;12.65;11.93;;;9.80;72.50;;;;;;5047412;28;20111;-81
2023/03/25 11:25:18;;;;;;;19.08;17.38;;;9.70;73.60;;;;;;5050829;28;20033;-77
2023/03/25 11:27:51;;;;;;;3.60;3.42;;;9.60;71.60;;;;;;5044601;28;20041;-82
2023/03/25 11:30:20;;;;;;;4.30;4.15;;;9.70;73.50;;;;;;5055219;28;20039;-79
2023/03/25 11:32:58;;;;;;;4.18;4.05;;;9.90;71.70;;;;;;5036070;28;20136;-82
2023/03/25 11:35:30;;;;;;;13.30;12.55;;;10.00;70.50;;;;;;5046555;28;20022;-81
2023/03/25 11:37:59;;;;;;;17.02;11.95;;;10.00;69.70;;;;;;5051809;28;20686;-80
2023/03/25 11:40:28;;;;;;;8.38;7.97;;;9.80;69.90;;;;;;5053186;28;20021;-80
2023/03/25 11:42:58;;;;;;;7.97;7.60;;;9.60;70.60;;;;;;5049675;28;20129;-80
2023/03/25 11:45:44;;;;;;;94.25;27.20;;;10.90;69.30;;;;;;5050360;28;20415;-82
2023/03/25 11:48:16;;;;;;;16.13;15.18;;;11.30;64.50;;;;;;5041013;28;20143;-76
2023/03/25 11:51:02;;;;;;;9.20;8.57;;;11.40;64.90;;;;;;5055872;28;20037;-80
2023/03/25 11:53:32;;;;;;;3.90;3.78;;;12.50;62.00;;;;;;5052298;28;20040;-77
2023/03/25 11:56:07;;;;;;;51.17;47.00;;;11.80;65.50;;;;;;5054471;28;20029;-79
2023/03/25 11:58:36;;;;;;;4.40;4.20;;;11.10;65.80;;;;;;5044340;28;20036;-80
2023/03/25 12:01:19;;;;;;;4.63;4.43;;;11.80;66.00;;;;;;5037832;28;20126;-76
2023/03/25 12:03:45;;;;;;;8.90;8.48;;;12.50;61.50;;;;;;5037626;28;20030;-84
2023/03/25 12:06:11;;;;;;;4.53;4.32;;;12.80;60.00;;;;;;5055325;28;20052;-80
2023/03/25 12:09:00;;;;;;;9.77;9.38;;;13.30;60.80;;;;;;5051030;28;20479;-78
2023/03/25 12:11:48;;;;;;;27.92;10.00;;;12.40;60.50;;;;;;5050470;28;20037;-81
2023/03/25 12:14:27;;;;;;;4.32;4.13;;;12.60;61.50;;;;;;5054036;28;20033;-77
2023/03/25 12:17:15;;;;;;;19.13;18.20;;;12.90;59.00;;;;;;5048815;28;20029;-77
2023/03/25 12:20:16;;;;;;;4.88;4.68;;;12.90;60.40;;;;;;5054423;28;20835;-81
2023/03/25 12:23:09;;;;;;;5.10;4.90;;;13.30;58.20;;;;;;5045339;28;20084;-83
2023/03/25 12:26:03;;;;;;;4.80;4.60;;;13.40;56.90;;;;;;5052285;28;20021;-79
2023/03/25 12:28:47;;;;;;;8.75;8.32;;;14.00;58.50;;;;;;5047385;28;20040;-82
2023/03/25 12:31:31;;;;;;;20.80;19.88;;;12.90;55.50;;;;;;5044168;28;20049;-77
2023/03/25 12:34:17;;;;;;;7.95;7.63;;;12.30;57.70;;;;;;5051426;28;20017;-78
2023/03/25 12:37:24;;;;;;;91.38;23.02;;;13.20;58.30;;;;;;5048806;28;20029;-78
2023/03/25 12:40:08;;;;;;;7.40;7.03;;;13.80;57.70;;;;;;5045695;28;20570;-78
2023/03/25 12:42:37;;;;;;;3.65;3.50;;;14.10;55.40;;;;;;5047724;28;20094;-79
2023/03/25 12:45:24;;;;;;;9.57;8.93;;;13.20;57.80;;;;;;5052398;28;20029;-79
2023/03/25 12:48:24;;;;;;;107.50;44.97;;;13.00;54.60;;;;;;5048796;28;20437;-75
2023/03/25 12:50:58;;;;;;;4.90;4.70;;;11.80;58.10;;;;;;5048201;28;20033;-76
2023/03/25 12:53:51;;;;;;;54.03;48.65;;;11.50;59.10;;;;;;5060940;28;20570;-76
2023/03/25 12:56:29;;;;;;;5.47;4.95;;;11.00;60.20;;;;;;5054710;28;20029;-75
2023/03/25 12:59:40;;;;;;;4.20;4.00;;;11.00;61.00;;;;;;5051863;28;20025;-77
2023/03/25 13:02:11;;;;;;;;;;;11.50;60.60;;;;;;5050946;28;20029;-76
2023/03/25 13:04:56;;;;;;;42.40;32.22;;;11.50;61.10;;;;;;5044306;28;19916;-75
2023/03/25 13:07:26;;;;;;;34.10;30.95;;;13.30;58.30;;;;;;5053781;28;20029;-79
2023/03/25 13:09:52;;;;;;;4.35;4.15;;;14.00;54.90;;;;;;5047951;28;20037;-75
2023/03/25 13:12:38;;;;;;;5.65;5.15;;;13.70;56.90;;;;;;5051851;28;20029;-76